Time;durP1;ratioP1;P1;durP2;ratioP2;P2;SDS_P1;SDS_P2;PMS_P1;PMS_P2;Temp;Humidity;BMP_temperature;BMP_pressure;BME280_temperature;BME280_humidity;BME280_pressure;Samples;Min_cycle;Max_cycle;Signal;HPM_P1;HPM_P2
2022/11/15 00:00:28;;;;;;;0.00;0.00;;;;;;;13.80;76.31;98479.84;7361211;19;20126;-58
2022/11/15 00:02:54;;;;;;;0.00;0.00;;;;;;;13.80;77.23;98477.22;7357876;19;20011;-59
2022/11/15 00:05:19;;;;;;;0.10;0.10;;;;;;;13.68;76.45;98480.69;7352145;19;21363;-60
2022/11/15 00:07:44;;;;;;;0.00;0.00;;;;;;;13.82;77.17;98456.13;7354095;19;20639;-60
2022/11/15 00:10:10;;;;;;;0.00;0.00;;;;;;;13.82;77.05;98440.38;7357948;19;20041;-59
2022/11/15 00:12:35;;;;;;;0.10;0.10;;;;;;;13.84;76.49;98431.47;7348035;19;20454;-60
2022/11/15 00:15:01;;;;;;;0.00;0.00;;;;;;;13.85;76.60;98427.88;7351695;19;20034;-60
2022/11/15 00:17:26;;;;;;;0.10;0.10;;;;;;;13.88;76.91;98432.06;7347249;19;20015;-60
2022/11/15 00:19:52;;;;;;;0.05;0.05;;;;;;;13.88;77.15;98432.06;7346210;19;20073;-60
2022/11/15 00:22:17;;;;;;;0.00;0.00;;;;;;;13.87;77.46;98428.59;7346369;19;20820;-60
2022/11/15 00:24:43;;;;;;;0.10;0.10;;;;;;;13.88;77.12;98426.81;7351053;19;20010;-60
2022/11/15 00:27:08;;;;;;;0.10;0.10;;;;;;;13.83;77.06;98416.66;7355802;19;20007;-60
2022/11/15 00:29:34;;;;;;;0.10;0.10;;;;;;;13.88;76.88;98422.41;7361191;19;20010;-60
2022/11/15 00:31:59;;;;;;;0.00;0.00;;;;;;;13.90;77.61;98431.00;7362026;19;20021;-60
2022/11/15 00:34:25;;;;;;;0.10;0.10;;;;;;;13.91;77.38;98405.59;7360681;19;20018;-60
2022/11/15 00:36:50;;;;;;;0.10;0.10;;;;;;;13.92;77.15;98387.13;7361099;19;20045;-60
2022/11/15 00:39:15;;;;;;;0.00;0.00;;;;;;;13.92;77.35;98388.91;7361883;19;20018;-60
2022/11/15 00:41:41;;;;;;;0.00;0.00;;;;;;;13.89;76.84;98381.25;7359700;19;20015;-60
2022/11/15 00:44:06;;;;;;;0.00;0.00;;;;;;;13.97;77.21;98385.00;7358090;19;20014;-60
2022/11/15 00:46:32;;;;;;;0.00;0.00;;;;;;;13.97;77.09;98373.66;7360509;19;20473;-60
2022/11/15 00:48:57;;;;;;;0.00;0.00;;;;;;;13.98;77.41;98375.34;7361150;19;20018;-59
2022/11/15 00:51:23;;;;;;;0.00;0.00;;;;;;;14.00;77.16;98381.31;7359099;19;20026;-60
2022/11/15 00:53:48;;;;;;;0.00;0.00;;;;;;;13.99;77.54;98370.00;7362506;19;20365;-60
2022/11/15 00:56:13;;;;;;;0.03;0.03;;;;;;;14.00;77.30;98362.97;7357995;19;20011;-60
2022/11/15 00:58:39;;;;;;;0.10;0.10;;;;;;;13.99;77.45;98362.13;7359912;19;20123;-60
2022/11/15 01:01:12;;;;;;;0.00;0.00;;;;;;;14.03;77.19;98379.28;7362133;19;20018;-61
2022/11/15 01:03:40;;;;;;;0.00;0.00;;;;;;;14.03;77.97;98367.97;7359945;19;20027;-60
2022/11/15 01:06:07;;;;;;;0.00;0.00;;;;;;;14.04;77.77;98364.41;7359914;19;20034;-60
2022/11/15 01:08:32;;;;;;;0.10;0.10;;;;;;;13.96;77.55;98353.63;7359964;19;20026;-60
2022/11/15 01:11:03;;;;;;;0.00;0.00;;;;;;;14.09;77.53;98350.91;7350980;19;20053;-60
2022/11/15 01:13:33;;;;;;;0.10;0.10;;;;;;;14.09;77.46;98357.03;7351843;19;20010;-60
2022/11/15 01:16:05;;;;;;;0.00;0.00;;;;;;;14.10;77.43;98353.44;7352595;19;20014;-60
2022/11/15 01:18:31;;;;;;;0.00;0.00;;;;;;;14.01;76.89;98333.97;7356884;19;20014;-60
2022/11/15 01:20:56;;;;;;;0.00;0.00;;;;;;;14.13;77.32;98326.97;7354719;19;23068;-60
2022/11/15 01:23:21;;;;;;;0.10;0.10;;;;;;;14.14;77.32;98328.66;7356679;19;20021;-60
2022/11/15 01:25:47;;;;;;;0.00;0.00;;;;;;;14.17;77.53;98332.81;7355709;19;20031;-60
2022/11/15 01:28:12;;;;;;;0.10;0.10;;;;;;;14.17;77.27;98323.16;7356070;19;20544;-60
2022/11/15 01:30:38;;;;;;;0.08;0.08;;;;;;;14.16;77.00;98311.00;7355398;19;20082;-59
2022/11/15 01:33:03;;;;;;;0.10;0.10;;;;;;;14.20;76.93;98301.94;7359966;19;20376;-60
2022/11/15 01:35:28;;;;;;;0.10;0.10;;;;;;;14.21;77.31;98314.09;7358790;19;20011;-60
2022/11/15 01:37:54;;;;;;;0.00;0.00;;;;;;;14.20;77.52;98299.31;7361006;19;20497;-60
2022/11/15 01:40:19;;;;;;;0.00;0.00;;;;;;;14.23;77.43;98296.44;7361335;19;20006;-60
2022/11/15 01:42:45;;;;;;;0.00;0.00;;;;;;;14.25;77.22;98289.31;7359394;19;20015;-60
2022/11/15 01:45:16;;;;;;;0.00;0.00;;;;;;;14.28;77.58;98280.34;7358502;19;20666;-60
2022/11/15 01:47:47;;;;;;;0.10;0.10;;;;;;;14.14;77.39;98244.66;7360502;19;20131;-60
2022/11/15 01:50:17;;;;;;;0.00;0.00;;;;;;;14.28;77.00;98273.28;7361357;19;20032;-60
2022/11/15 01:52:43;;;;;;;0.00;0.00;;;;;;;14.32;77.31;98262.56;7358360;19;20075;-60
2022/11/15 01:55:18;;;;;;;0.08;0.08;;;;;;;14.34;77.26;98252.78;7357232;19;20010;-60
2022/11/15 01:57:46;;;;;;;0.00;0.00;;;;;;;14.34;77.12;98268.53;7359230;19;20021;-60
2022/11/15 02:00:12;;;;;;;0.10;0.10;;;;;;;14.28;77.21;98254.91;7357177;19;21093;-60
2022/11/15 02:02:39;;;;;;;0.08;0.08;;;;;;;14.31;77.67;98260.91;7361312;19;20011;-60
2022/11/15 02:05:04;;;;;;;0.08;0.08;;;;;;;14.35;77.38;98314.84;7357579;19;20580;-60
2022/11/15 02:07:31;;;;;;;0.10;0.10;;;;;;;14.40;77.39;98354.72;7359328;19;20015;-60
2022/11/15 02:10:02;;;;;;;0.00;0.00;;;;;;;14.40;76.27;98349.47;7361606;19;20014;-61
2022/11/15 02:12:27;;;;;;;0.10;0.10;;;;;;;14.32;75.24;98338.72;7359419;19;20003;-61
2022/11/15 02:14:55;;;;;;;0.00;0.00;;;;;;;14.21;75.43;98350.84;7359006;19;20047;-60
2022/11/15 02:18:17;;;;;;;0.00;0.00;;;;;;;14.09;74.21;98357.03;7360072;19;20010;-59
2022/11/15 02:20:48;;;;;;;0.10;0.10;;;;;;;13.90;75.22;98359.34;7154568;19;2005274;-59
2022/11/15 02:23:28;;;;;;;0.00;0.00;;;;;;;13.76;75.54;98355.94;7358308;19;20018;-59
2022/11/15 02:26:21;;;;;;;0.10;0.10;;;;;;;13.62;75.30;98363.97;7358117;19;20018;-59
2022/11/15 02:29:04;;;;;;;0.00;0.00;;;;;;;13.48;74.98;98367.59;7256260;19;2004361;-59
2022/11/15 02:31:54;;;;;;;0.00;0.00;;;;;;;13.36;76.20;98357.13;7359793;19;20018;-59
2022/11/15 02:34:20;;;;;;;0.00;0.00;;;;;;;13.23;76.41;98373.75;7356219;19;20432;-59
2022/11/15 02:37:14;;;;;;;0.00;0.00;;;;;;;13.15;75.48;98376.03;7359175;19;20149;-59
2022/11/15 02:39:56;;;;;;;0.00;0.00;;;;;;;13.07;76.20;98377.50;7256879;19;2003950;-59
2022/11/15 02:45:21;;;;;;;0.00;0.00;;;;;;;12.87;76.63;98360.56;7252852;19;2004424;-59
2022/11/15 02:47:51;;;;;;;0.00;0.00;;;;;;;12.80;77.00;98369.78;7356543;19;20023;-59
2022/11/15 02:50:20;;;;;;;0.10;0.10;;;;;;;12.72;77.24;98386.00;7356903;19;20109;-58
2022/11/15 02:52:48;;;;;;;0.10;0.10;;;;;;;12.64;77.42;98390.97;7353772;19;20015;-59
2022/11/15 02:55:33;;;;;;;0.00;0.00;;;;;;;12.61;76.54;98396.38;7355822;19;20010;-59
2022/11/15 02:58:33;;;;;;;0.00;0.00;;;;;;;12.56;77.06;98404.56;7346961;19;20002;-59
2022/11/15 03:01:20;;;;;;;0.10;0.10;;;;;;;12.50;78.15;98410.19;7256683;19;2004086;-59
2022/11/15 03:04:17;;;;;;;0.00;0.00;;;;;;;12.47;77.12;98415.66;7354595;19;20015;-59
2022/11/15 03:07:28;;;;;;;0.00;0.00;;;;;;;12.41;77.37;98410.81;7262842;19;2004240;-58
2022/11/15 03:10:13;;;;;;;0.00;0.00;;;;;;;12.37;77.10;98404.13;7259860;19;2004327;-59
2022/11/15 03:12:51;;;;;;;0.00;0.00;;;;;;;12.23;77.91;98391.13;7364393;19;20454;-59
2022/11/15 03:15:40;;;;;;;0.00;0.00;;;;;;;12.30;77.71;98416.75;7361900;19;20010;-59
2022/11/15 03:18:21;;;;;;;0.10;0.10;;;;;;;12.27;77.89;98416.16;7363676;19;20021;-59
2022/11/15 03:20:48;;;;;;;0.10;0.10;;;;;;;12.23;78.18;98417.28;7366976;19;20006;-59
2022/11/15 03:23:13;;;;;;;0.00;0.00;;;;;;;12.09;78.42;98411.16;7362341;19;20026;-60
2022/11/15 03:25:48;;;;;;;0.00;0.00;;;;;;;12.20;78.75;98419.16;7364827;19;20039;-59
2022/11/15 03:28:22;;;;;;;0.10;0.10;;;;;;;12.19;78.94;98414.03;7361607;19;20006;-59
2022/11/15 03:30:52;;;;;;;0.00;0.00;;;;;;;12.15;78.79;98415.16;7365532;19;20406;-59
2022/11/15 03:33:20;;;;;;;0.00;0.00;;;;;;;12.16;78.63;98425.50;7363379;19;20078;-59
2022/11/15 03:35:47;;;;;;;0.00;0.00;;;;;;;12.14;78.62;98427.41;7361656;19;20458;-60
2022/11/15 03:38:25;;;;;;;0.00;0.00;;;;;;;12.14;77.35;98424.78;7363585;19;20018;-59
2022/11/15 03:41:04;;;;;;;0.00;0.00;;;;;;;12.12;77.49;98418.84;7357421;19;20018;-59
2022/11/15 03:43:41;;;;;;;0.00;0.00;;;;;;;12.09;77.20;98428.66;7364025;19;20078;-59
2022/11/15 03:46:33;;;;;;;0.00;0.00;;;;;;;12.06;76.90;98429.66;7361547;19;20461;-59
2022/11/15 03:49:12;;;;;;;0.05;0.05;;;;;;;12.03;77.32;98422.03;7264094;19;2004386;-59
2022/11/15 03:51:37;;;;;;;0.00;0.00;;;;;;;11.98;77.17;98431.97;7361592;19;20573;-59
2022/11/15 03:54:06;;;;;;;0.00;0.00;;;;;;;11.90;77.80;98421.16;7363648;19;20021;-60
2022/11/15 03:56:32;;;;;;;0.10;0.10;;;;;;;11.86;78.15;98414.44;7361921;19;20014;-59
2022/11/15 03:58:57;;;;;;;0.00;0.00;;;;;;;11.83;78.60;98417.25;7362971;19;20007;-59
2022/11/15 04:01:23;;;;;;;0.00;0.00;;;;;;;11.81;77.97;98424.31;7366017;19;20010;-59
2022/11/15 04:03:48;;;;;;;0.03;0.03;;;;;;;11.78;77.31;98419.28;7359420;19;20419;-59
2022/11/15 04:06:14;;;;;;;0.00;0.00;;;;;;;11.64;77.68;98405.31;7358003;19;20010;-59
2022/11/15 04:08:40;;;;;;;0.00;0.00;;;;;;;11.69;77.72;98418.94;7365684;19;20470;-59
2022/11/15 04:11:05;;;;;;;0.00;0.00;;;;;;;11.62;77.65;98412.44;7362962;19;20051;-59
2022/11/15 04:13:30;;;;;;;0.00;0.00;;;;;;;11.62;77.89;98406.38;7363604;19;20366;-60
2022/11/15 04:15:56;;;;;;;0.10;0.10;;;;;;;11.60;77.24;98410.84;7363138;19;20388;-59
2022/11/15 04:18:21;;;;;;;0.10;0.10;;;;;;;11.57;78.28;98409.28;7364281;19;20029;-60
2022/11/15 04:26:18;;;;;;;0.00;0.00;;;;;;;11.49;77.96;98403.69;7362299;19;20023;-59
2022/11/15 04:31:28;;;;;;;0.00;0.00;;;;;;;11.40;78.05;98407.72;7364185;19;20085;-58
2022/11/15 04:33:54;;;;;;;0.00;0.00;;;;;;;11.37;77.81;98401.84;7363284;19;20860;-59
2022/11/15 04:39:05;;;;;;;0.00;0.00;;;;;;;11.31;77.60;98404.84;7363386;19;20571;-59
2022/11/15 04:41:30;;;;;;;0.00;0.00;;;;;;;11.25;77.56;98399.97;7366158;19;20010;-60
2022/11/15 04:43:56;;;;;;;0.00;0.00;;;;;;;11.24;77.04;98408.75;7362001;19;20011;-59
2022/11/15 04:46:23;;;;;;;0.00;0.00;;;;;;;11.08;76.71;98401.88;7365739;19;20086;-59
2022/11/15 04:48:49;;;;;;;0.00;0.00;;;;;;;11.15;77.65;98424.09;7363887;19;20010;-59
2022/11/15 04:51:15;;;;;;;0.00;0.00;;;;;;;11.10;77.54;98426.16;7365077;19;21873;-59
2022/11/15 04:53:40;;;;;;;0.00;0.00;;;;;;;11.08;78.05;98422.75;7363455;19;20034;-59
2022/11/15 04:56:06;;;;;;;0.10;0.10;;;;;;;11.06;77.69;98423.81;7364821;19;20010;-59
2022/11/15 04:58:31;;;;;;;0.00;0.00;;;;;;;11.02;78.30;98420.53;7361971;19;20014;-59
2022/11/15 05:00:57;;;;;;;0.00;0.00;;;;;;;11.01;78.28;98416.25;7366173;19;20384;-59
2022/11/15 05:06:06;;;;;;;0.00;0.00;;;;;;;10.97;78.65;98430.41;7362304;19;20761;-59
2022/11/15 05:08:32;;;;;;;0.10;0.10;;;;;;;10.94;78.61;98417.53;7365173;19;20058;-59
2022/11/15 05:10:58;;;;;;;0.00;0.00;;;;;;;10.95;78.89;98428.81;7360528;19;20041;-58
2022/11/15 05:13:23;;;;;;;0.08;0.08;;;;;;;10.94;79.30;98420.16;7362588;19;20025;-59
2022/11/15 05:15:49;;;;;;;0.00;0.00;;;;;;;10.90;79.31;98435.19;7361158;19;20014;-59
2022/11/15 05:18:14;;;;;;;0.00;0.00;;;;;;;10.92;78.99;98440.31;7363187;19;20021;-59
2022/11/15 05:20:40;;;;;;;0.00;0.00;;;;;;;10.93;79.27;98433.31;7362410;19;20010;-59
2022/11/15 05:23:05;;;;;;;0.10;0.10;;;;;;;10.92;79.77;98442.91;7369530;19;20017;-58
2022/11/15 05:25:31;;;;;;;0.03;0.03;;;;;;;10.92;79.72;98442.91;7363934;19;20018;-59
2022/11/15 05:27:56;;;;;;;0.00;0.00;;;;;;;10.93;79.62;98433.31;7363670;19;20015;-59
2022/11/15 05:30:21;;;;;;;0.10;0.10;;;;;;;10.83;79.65;98417.34;7361498;19;20026;-59
2022/11/15 05:32:47;;;;;;;0.05;0.05;;;;;;;10.85;80.05;98433.78;7363131;19;20002;-59
2022/11/15 05:35:25;;;;;;;0.00;0.00;;;;;;;10.94;80.06;98446.25;7364133;19;20030;-58
2022/11/15 05:37:51;;;;;;;0.00;0.00;;;;;;;10.91;80.02;98459.53;7363190;19;20036;-59
2022/11/15 05:40:16;;;;;;;0.00;0.00;;;;;;;10.93;80.31;98452.41;7363119;19;20011;-59
2022/11/15 05:42:42;;;;;;;0.10;0.10;;;;;;;10.94;79.77;98458.47;7358692;19;21111;-59
2022/11/15 05:45:09;;;;;;;0.08;0.08;;;;;;;10.94;79.65;98461.09;7363328;19;20034;-59
2022/11/15 05:47:35;;;;;;;0.00;0.00;;;;;;;10.92;79.62;98474.25;7361803;19;20021;-60
2022/11/15 05:50:01;;;;;;;0.00;0.00;;;;;;;10.93;78.93;98481.16;7364616;19;20022;-59
2022/11/15 05:52:31;;;;;;;0.10;0.10;;;;;;;10.92;79.37;98484.69;7361873;19;20012;-59
2022/11/15 05:54:57;;;;;;;0.10;0.10;;;;;;;10.89;79.27;98490.09;7360259;19;20741;-59
2022/11/15 05:57:24;;;;;;;0.10;0.10;;;;;;;10.87;78.73;98497.19;7363031;19;20006;-59
2022/11/15 05:59:49;;;;;;;0.00;0.00;;;;;;;10.85;79.31;98499.06;7361778;19;20102;-58
2022/11/15 06:02:15;;;;;;;0.00;0.00;;;;;;;10.81;79.44;98487.09;7361281;19;20015;-58
2022/11/15 06:04:40;;;;;;;0.00;0.00;;;;;;;10.73;79.20;98484.09;7361023;19;20056;-58
2022/11/15 06:07:05;;;;;;;0.05;0.05;;;;;;;10.78;79.51;98495.94;7361380;19;20014;-59
2022/11/15 06:09:31;;;;;;;0.00;0.00;;;;;;;10.77;79.71;98490.81;7362491;19;20015;-59
2022/11/15 06:11:56;;;;;;;0.00;0.00;;;;;;;10.78;79.40;98489.88;7360484;19;20010;-58
2022/11/15 06:14:22;;;;;;;0.00;0.00;;;;;;;10.76;79.04;98491.75;7361429;19;20034;-58
2022/11/15 06:16:47;;;;;;;0.00;0.00;;;;;;;10.76;79.35;98489.16;7361654;19;21690;-59
2022/11/15 06:19:13;;;;;;;0.00;0.00;;;;;;;10.75;78.51;98498.75;7359814;19;20032;-59
2022/11/15 06:21:38;;;;;;;0.00;0.00;;;;;;;10.69;78.38;98495.63;7360857;19;20013;-59
2022/11/15 06:24:05;;;;;;;0.00;0.00;;;;;;;10.72;79.24;98495.47;7360169;19;20090;-57
2022/11/15 06:26:31;;;;;;;0.00;0.00;;;;;;;10.69;79.01;98488.66;7357921;19;20469;-58
2022/11/15 06:28:56;;;;;;;0.10;0.10;;;;;;;10.68;79.64;98496.56;7359675;19;21046;-59
2022/11/15 06:31:22;;;;;;;0.10;0.10;;;;;;;10.66;79.08;98491.47;7360027;19;20016;-59
2022/11/15 06:33:49;;;;;;;0.00;0.00;;;;;;;10.64;78.93;98491.56;7363060;19;20011;-59
2022/11/15 06:36:16;;;;;;;0.00;0.00;;;;;;;10.57;78.91;98479.78;7359654;19;20018;-59
2022/11/15 06:38:42;;;;;;;0.00;0.00;;;;;;;10.62;78.42;98480.34;7359987;19;20094;-59
2022/11/15 06:41:10;;;;;;;0.00;0.00;;;;;;;10.61;78.78;98475.22;7367154;19;20016;-58
2022/11/15 06:43:36;;;;;;;0.00;0.00;;;;;;;10.59;78.58;98482.28;7367456;19;20014;-58
2022/11/15 06:46:03;;;;;;;0.00;0.00;;;;;;;10.44;79.07;98468.38;7367182;19;20576;-59
2022/11/15 06:48:30;;;;;;;0.00;0.00;;;;;;;10.54;78.44;98490.41;7368013;19;20586;-58
2022/11/15 06:50:58;;;;;;;0.00;0.00;;;;;;;10.52;78.30;98487.03;7367565;19;20019;-59
2022/11/15 06:53:24;;;;;;;0.00;0.00;;;;;;;10.50;78.81;98495.88;7368675;19;20019;-59
2022/11/15 06:55:50;;;;;;;0.00;0.00;;;;;;;10.48;79.00;98503.78;7367400;19;20015;-58
2022/11/15 06:58:15;;;;;;;0.00;0.00;;;;;;;10.45;78.31;98509.19;7359430;19;20464;-59
2022/11/15 07:00:42;;;;;;;0.08;0.08;;;;;;;10.43;78.79;98503.22;7365100;19;20007;-59
2022/11/15 07:03:07;;;;;;;0.10;0.10;;;;;;;10.41;78.73;98505.06;7365489;19;20020;-58
2022/11/15 07:05:33;;;;;;;0.00;0.00;;;;;;;10.32;79.03;98498.59;7363443;19;20030;-59
2022/11/15 07:07:59;;;;;;;0.00;0.00;;;;;;;10.38;79.47;98521.72;7363729;19;20034;-59
2022/11/15 07:10:25;;;;;;;0.00;0.00;;;;;;;10.33;79.41;98517.69;7364881;19;20014;-59
2022/11/15 07:12:51;;;;;;;0.10;0.10;;;;;;;10.33;78.69;98528.13;7363545;19;20027;-59
2022/11/15 07:15:17;;;;;;;0.10;0.10;;;;;;;10.33;78.67;98528.13;7362864;19;20110;-58
2022/11/15 07:17:43;;;;;;;0.00;0.00;;;;;;;10.26;78.95;98519.00;7366803;19;20014;-59
2022/11/15 07:20:09;;;;;;;0.03;0.03;;;;;;;10.28;78.82;98535.38;7364852;19;20011;-58
2022/11/15 07:22:35;;;;;;;0.00;0.00;;;;;;;10.23;78.19;98537.38;7362139;19;20015;-59
2022/11/15 07:25:00;;;;;;;0.00;0.00;;;;;;;10.23;77.67;98543.44;7366512;19;20352;-58
2022/11/15 07:27:26;;;;;;;0.00;0.00;;;;;;;10.11;77.85;98525.88;7365010;19;20027;-58
2022/11/15 07:29:51;;;;;;;0.00;0.00;;;;;;;10.17;78.45;98532.50;7362647;19;20822;-58
2022/11/15 07:32:16;;;;;;;0.00;0.00;;;;;;;10.12;78.25;98531.00;7362138;19;20027;-58
2022/11/15 07:34:42;;;;;;;0.00;0.00;;;;;;;10.09;77.98;98520.75;7359927;19;20006;-56
2022/11/15 07:37:08;;;;;;;0.05;0.05;;;;;;;10.07;78.18;98519.97;7361352;19;20018;-59
2022/11/15 07:39:33;;;;;;;0.10;0.10;;;;;;;10.03;78.31;98515.84;7364248;19;20011;-57
2022/11/15 07:44:43;;;;;;;0.00;0.00;;;;;;;9.97;77.71;98521.41;7363384;19;20035;-59
2022/11/15 07:47:09;;;;;;;0.00;0.00;;;;;;;9.96;77.97;98524.09;7365664;19;20450;-59
2022/11/15 07:49:34;;;;;;;0.00;0.00;;;;;;;9.91;77.90;98526.13;7354185;19;20013;-59
2022/11/15 07:51:59;;;;;;;0.00;0.00;;;;;;;9.82;77.62;98522.25;7357470;19;20033;-58
2022/11/15 07:54:25;;;;;;;0.00;0.00;;;;;;;9.82;78.40;98532.66;7362572;19;20010;-58
2022/11/15 07:56:50;;;;;;;0.00;0.00;;;;;;;9.77;78.68;98539.91;7360834;19;20017;-58
2022/11/15 07:59:16;;;;;;;0.00;0.00;;;;;;;9.73;77.92;98533.16;7352095;19;20037;-59
2022/11/15 08:01:41;;;;;;;0.00;0.00;;;;;;;9.68;77.88;98529.97;7352387;19;20033;-59
2022/11/15 08:04:07;;;;;;;0.00;0.00;;;;;;;9.65;77.94;98525.78;7351195;19;20031;-58
2022/11/15 08:06:32;;;;;;;0.00;0.00;;;;;;;9.61;78.24;98519.88;7348577;19;20046;-58
2022/11/15 08:08:57;;;;;;;0.00;0.00;;;;;;;9.57;78.52;98523.56;7345622;19;20018;-59
2022/11/15 08:11:23;;;;;;;0.10;0.10;;;;;;;9.53;78.04;98529.88;7352380;19;20013;-59
2022/11/15 08:13:48;;;;;;;0.00;0.00;;;;;;;9.49;78.61;98541.38;7357781;19;20007;-58
2022/11/15 08:16:14;;;;;;;0.00;0.00;;;;;;;9.45;78.86;98547.66;7356795;19;20006;-58
2022/11/15 08:18:39;;;;;;;0.00;0.00;;;;;;;9.41;78.74;98551.34;7357995;19;20006;-57
2022/11/15 08:21:05;;;;;;;0.00;0.00;;;;;;;9.38;78.73;98542.84;7357756;19;20665;-59
2022/11/15 08:23:31;;;;;;;0.00;0.00;;;;;;;9.35;78.19;98543.88;7357603;19;20082;-58
2022/11/15 08:26:04;;;;;;;0.00;0.00;;;;;;;9.25;78.29;98525.28;7348945;19;20445;-58
2022/11/15 08:28:30;;;;;;;0.00;0.00;;;;;;;9.29;77.73;98539.81;7351608;19;20035;-58
2022/11/15 08:30:56;;;;;;;0.00;0.00;;;;;;;9.26;77.81;98529.56;7349613;19;20025;-58
2022/11/15 08:33:21;;;;;;;0.00;0.00;;;;;;;9.23;77.25;98534.09;7346303;19;20018;-59
2022/11/15 08:35:48;;;;;;;0.00;0.00;;;;;;;9.20;77.54;98544.66;7347729;19;20014;-58
2022/11/15 08:38:14;;;;;;;0.00;0.00;;;;;;;9.16;77.34;98553.53;7350612;19;20017;-59
2022/11/15 08:40:40;;;;;;;0.10;0.10;;;;;;;9.14;78.05;98550.19;7349362;19;20025;-58
2022/11/15 08:43:05;;;;;;;0.00;0.00;;;;;;;9.09;78.01;98548.66;7348232;19;20614;-56
2022/11/15 08:45:33;;;;;;;0.00;0.00;;;;;;;9.09;78.13;98563.44;7346576;19;20010;-58
2022/11/15 08:48:00;;;;;;;;;;;;;;;9.08;76.20;98554.78;7350550;19;20011;-58
2022/11/15 08:50:25;;;;;;;0.00;0.00;;;;;;;9.05;77.74;98557.53;7346723;19;19965;-57
2022/11/15 08:52:51;;;;;;;0.00;0.00;;;;;;;9.02;78.39;98557.72;7347983;19;20010;-58
2022/11/15 08:55:16;;;;;;;0.00;0.00;;;;;;;9.08;78.82;98562.59;7348578;19;20029;-59
2022/11/15 08:57:41;;;;;;;0.10;0.10;;;;;;;9.16;79.10;98558.75;7348924;19;20051;-59
2022/11/15 09:00:08;;;;;;;0.00;0.00;;;;;;;9.25;79.90;98568.69;7348253;19;20861;-58
2022/11/15 09:02:33;;;;;;;0.05;0.05;;;;;;;9.37;80.08;98552.44;7347874;19;20470;-57
2022/11/15 09:04:58;;;;;;;0.00;0.00;;;;;;;9.52;79.72;98556.00;7345932;19;20006;-58
2022/11/15 09:07:24;;;;;;;0.00;0.00;;;;;;;9.67;80.17;98549.97;7347457;19;20037;-58
2022/11/15 09:09:49;;;;;;;0.00;0.00;;;;;;;9.86;79.71;98555.03;7346889;19;20031;-59
2022/11/15 09:12:15;;;;;;;0.00;0.00;;;;;;;10.05;79.62;98549.69;7349314;19;20041;-59
2022/11/15 09:14:40;;;;;;;0.00;0.00;;;;;;;10.24;79.54;98544.28;7352430;19;20033;-59
2022/11/15 09:17:09;;;;;;;0.00;0.00;;;;;;;10.38;79.28;98526.09;7351077;19;20018;-59
2022/11/15 09:19:34;;;;;;;0.00;0.00;;;;;;;10.58;78.84;98533.63;7350813;19;20011;-59
2022/11/15 09:22:00;;;;;;;0.00;0.00;;;;;;;10.71;78.54;98528.56;7351731;19;20027;-59
2022/11/15 09:24:25;;;;;;;0.00;0.00;;;;;;;10.77;78.19;98529.97;7351928;19;20824;-59
2022/11/15 09:26:51;;;;;;;0.00;0.00;;;;;;;10.78;78.29;98527.28;7353183;19;20011;-56
2022/11/15 09:29:17;;;;;;;0.00;0.00;;;;;;;10.65;78.21;98501.06;7350992;19;20018;-59
2022/11/15 09:31:43;;;;;;;0.00;0.00;;;;;;;10.72;77.96;98530.25;7350092;19;20014;-58
2022/11/15 09:34:09;;;;;;;0.00;0.00;;;;;;;10.65;77.98;98527.16;7351863;19;20029;-59
2022/11/15 09:36:34;;;;;;;0.08;0.08;;;;;;;10.60;77.92;98534.41;7350415;19;20113;-58
2022/11/15 09:39:00;;;;;;;0.00;0.00;;;;;;;10.52;78.27;98528.78;7345742;19;20009;-58
2022/11/15 09:41:40;;;;;;;0.00;0.00;;;;;;;10.49;77.67;98528.97;7347288;19;20121;-58
2022/11/15 09:44:37;;;;;;;0.00;0.00;;;;;;;10.43;77.96;98529.28;7345774;19;20010;-58
2022/11/15 09:47:37;;;;;;;0.00;0.00;;;;;;;10.41;78.29;98528.56;7247404;19;2004362;-58
2022/11/15 09:50:10;;;;;;;0.00;0.00;;;;;;;10.39;78.24;98530.41;7249484;19;2004421;-59
2022/11/15 09:52:38;;;;;;;0.00;0.00;;;;;;;10.39;78.73;98525.19;7352973;19;20010;-58
2022/11/15 09:55:05;;;;;;;0.00;0.00;;;;;;;10.41;78.53;98518.13;7350193;19;20011;-59
2022/11/15 09:57:41;;;;;;;0.00;0.00;;;;;;;10.43;78.08;98524.06;7351949;19;20010;-57
2022/11/15 10:00:25;;;;;;;0.00;0.00;;;;;;;10.43;78.74;98516.25;7347615;19;20021;-58
2022/11/15 10:03:15;;;;;;;0.00;0.00;;;;;;;10.40;78.59;98503.41;7348183;19;20462;-58
2022/11/15 10:05:54;;;;;;;0.10;0.10;;;;;;;10.45;79.10;98511.81;7358297;19;20564;-58
2022/11/15 10:08:45;;;;;;;0.00;0.00;;;;;;;10.57;78.95;98516.31;7350756;19;20003;-58
2022/11/15 10:11:14;;;;;;;0.00;0.00;;;;;;;10.55;79.54;98496.47;7346804;19;20031;-56
2022/11/15 10:13:47;;;;;;;0.08;0.08;;;;;;;10.77;79.78;98511.72;7347109;19;20023;-58
2022/11/15 10:16:35;;;;;;;0.00;0.00;;;;;;;11.04;79.48;98520.50;7357189;19;20011;-58
2022/11/15 10:19:06;;;;;;;0.00;0.00;;;;;;;11.24;79.02;98523.72;7357542;19;20904;-58
2022/11/15 10:21:55;;;;;;;0.05;0.05;;;;;;;11.44;79.35;98512.88;7360022;19;20006;-58
2022/11/15 10:24:27;;;;;;;0.00;0.00;;;;;;;11.62;79.29;98506.53;7354974;19;20010;-59
2022/11/15 10:26:54;;;;;;;0.05;0.05;;;;;;;11.79;78.47;98508.09;7353489;19;20010;-56
2022/11/15 16:12:48;;;;;;;0.10;0.10;;;;;;;16.20;65.21;98228.94;7390361;19;20700;-59
2022/11/15 16:15:14;;;;;;;0.10;0.10;;;;;;;16.46;62.07;98229.34;7391561;19;20691;-59
2022/11/15 16:17:45;;;;;;;0.00;0.00;;;;;;;16.67;61.86;98226.66;7390171;19;20117;-58
2022/11/15 16:20:32;;;;;;;0.10;0.10;;;;;;;16.84;61.76;98224.25;7386897;19;20023;-60
2022/11/15 16:22:58;;;;;;;0.00;0.00;;;;;;;16.92;56.38;98225.38;7390399;19;20022;-57
2022/11/15 16:25:24;;;;;;;0.10;0.10;;;;;;;16.94;54.50;98218.16;7391835;19;20014;-57
2022/11/15 16:27:49;;;;;;;0.10;0.10;;;;;;;16.94;57.00;98213.72;7385917;19;20018;-57
2022/11/15 16:30:17;;;;;;;0.00;0.00;;;;;;;16.90;57.54;98212.31;7388823;19;20064;-56
2022/11/15 16:32:43;;;;;;;0.00;0.00;;;;;;;16.88;57.34;98216.06;7386899;19;20007;-56
2022/11/15 16:35:13;;;;;;;0.10;0.10;;;;;;;16.81;58.88;98208.69;7391798;19;21448;-57
2022/11/15 16:37:43;;;;;;;0.10;0.10;;;;;;;16.63;60.96;98199.75;7391922;19;20020;-57
2022/11/15 16:40:30;;;;;;;0.00;0.00;;;;;;;16.67;61.22;98216.94;7390369;19;20006;-58
2022/11/15 16:42:56;;;;;;;0.10;0.10;;;;;;;16.59;59.32;98214.16;7385917;19;20013;-56
2022/11/15 16:45:23;;;;;;;0.10;0.10;;;;;;;16.52;58.79;98207.72;7392214;19;20037;-57
2022/11/15 16:47:48;;;;;;;0.00;0.00;;;;;;;16.43;61.78;98208.56;7391312;19;20464;-57
2022/11/15 16:50:23;;;;;;;0.08;0.08;;;;;;;16.38;63.98;98210.75;7388823;19;20460;-56
2022/11/15 16:52:55;;;;;;;0.00;0.00;;;;;;;16.26;65.77;98189.75;7389809;19;20014;-57
2022/11/15 16:55:22;;;;;;;0.00;0.00;;;;;;;16.21;68.94;98199.00;7388240;19;20015;-57
2022/11/15 16:57:48;;;;;;;0.00;0.00;;;;;;;16.09;60.02;98198.28;7387671;19;20815;-56
2022/11/15 17:00:15;;;;;;;0.10;0.10;;;;;;;16.04;58.19;98192.56;7387828;19;20026;-58
2022/11/15 17:02:50;;;;;;;0.00;0.00;;;;;;;15.93;59.19;98187.38;7384725;19;20018;-57
2022/11/15 17:05:18;;;;;;;0.10;0.10;;;;;;;15.86;57.86;98196.75;7388756;19;20010;-57
2022/11/15 17:07:47;;;;;;;0.00;0.00;;;;;;;15.76;55.88;98200.16;7390447;19;20034;-57
2022/11/15 17:10:13;;;;;;;0.05;0.05;;;;;;;15.67;57.74;98206.19;7388970;19;20043;-56
2022/11/15 17:12:38;;;;;;;0.00;0.00;;;;;;;15.59;57.52;98205.97;7374092;19;20085;-56
2022/11/15 17:15:05;;;;;;;0.00;0.00;;;;;;;15.44;56.38;98196.72;7360607;19;20807;-57
2022/11/15 17:17:31;;;;;;;0.05;0.05;;;;;;;15.47;56.25;98206.97;7359142;19;20011;-57
2022/11/15 17:19:57;;;;;;;0.08;0.08;;;;;;;15.41;61.03;98215.34;7340558;19;20089;-56
2022/11/15 17:22:23;;;;;;;0.00;0.00;;;;;;;15.26;58.11;98202.53;7354274;19;20533;-60
2022/11/15 17:24:48;;;;;;;0.00;0.00;;;;;;;15.26;57.23;98207.78;7357666;19;20050;-57
2022/11/15 17:27:14;;;;;;;0.00;0.00;;;;;;;15.21;60.46;98209.97;7360800;19;20015;-57
2022/11/15 17:29:40;;;;;;;0.00;0.00;;;;;;;15.15;59.01;98207.81;7359449;19;20030;-58
2022/11/15 17:32:06;;;;;;;0.00;0.00;;;;;;;15.11;61.49;98209.03;7358153;19;20010;-58
2022/11/15 17:34:31;;;;;;;0.00;0.00;;;;;;;15.06;62.79;98205.94;7358042;19;20023;-57
2022/11/15 17:36:57;;;;;;;0.10;0.10;;;;;;;15.01;60.73;98208.09;7360525;19;20023;-58
2022/11/15 17:39:23;;;;;;;0.00;0.00;;;;;;;14.96;58.82;98205.03;7359584;19;20500;-55
2022/11/15 17:41:50;;;;;;;0.00;0.00;;;;;;;14.92;58.75;98203.59;7358919;19;20014;-57
2022/11/15 17:44:16;;;;;;;0.00;0.00;;;;;;;14.88;65.01;98207.41;7357561;19;20018;-56